createdAt,value
2022-09-05T00:00:20.608Z,15.78
2022-09-05T00:03:31.489Z,15.82
2022-09-05T00:06:03.446Z,15.83
2022-09-05T00:09:04.660Z,15.83
2022-09-05T00:11:47.872Z,15.88
2022-09-05T00:14:53.185Z,15.93
2022-09-05T00:18:52.908Z,15.96
2022-09-05T00:24:19.902Z,15.90
2022-09-05T00:24:32.506Z,15.97
2022-09-05T00:26:36.675Z,15.97
2022-09-05T00:29:42.057Z,15.97
2022-09-05T00:32:30.958Z,15.89
2022-09-05T00:35:01.279Z,15.95
2022-09-05T00:37:51.159Z,15.82
2022-09-05T00:40:34.106Z,15.87
2022-09-05T00:43:22.133Z,15.87
2022-09-05T00:46:04.543Z,15.82
2022-09-05T00:48:49.943Z,15.59
2022-09-05T00:51:38.490Z,15.73
2022-09-05T00:54:40.193Z,15.70
2022-09-05T00:57:30.793Z,15.73
2022-09-05T01:00:17.882Z,15.74
2022-09-05T01:02:59.155Z,15.73
2022-09-05T01:05:38.413Z,15.80
2022-09-05T01:08:36.391Z,15.80
2022-09-05T01:11:32.733Z,15.80
2022-09-05T01:14:30.855Z,15.80
2022-09-05T01:17:28.978Z,15.94
2022-09-05T01:20:19.432Z,15.88
2022-09-05T01:23:07.278Z,15.71
2022-09-05T01:26:13.354Z,15.82
2022-09-05T01:29:17.757Z,15.90
2022-09-05T01:32:15.715Z,15.89
2022-09-05T01:35:01.189Z,15.77
2022-09-05T01:38:06.936Z,15.92
2022-09-05T01:41:18.021Z,16.01
2022-09-05T01:43:58.858Z,15.94
2022-09-05T01:46:35.226Z,15.79
2022-09-05T01:49:07.739Z,15.80
2022-09-05T01:51:46.181Z,15.73
2022-09-05T01:54:30.232Z,15.72
2022-09-05T01:57:18.265Z,15.70
2022-09-05T02:00:04.584Z,15.45
2022-09-05T02:03:07.038Z,15.37
2022-09-05T02:05:51.864Z,15.25
2022-09-05T02:08:42.467Z,15.10
2022-09-05T02:11:14.356Z,15.15
2022-09-05T02:14:14.538Z,15.03
2022-09-05T02:16:57.809Z,15.01
2022-09-05T02:19:30.982Z,14.93
2022-09-05T02:22:10.335Z,14.91
2022-09-05T02:24:43.198Z,14.84
2022-09-05T02:27:47.591Z,14.89
2022-09-05T02:30:25.531Z,14.89
2022-09-05T02:33:03.157Z,14.93
2022-09-05T02:35:36.191Z,15.00
2022-09-05T02:44:08.067Z,14.99
2022-09-05T02:45:11.602Z,14.98
2022-09-05T02:45:25.502Z,14.87
2022-09-05T02:48:33.528Z,14.83
2022-09-05T02:57:24.635Z,14.77
2022-09-05T02:57:34.407Z,14.81
2022-09-05T02:57:36.181Z,14.77
2022-09-05T03:00:22.462Z,14.79
2022-09-05T03:03:01.876Z,14.80
2022-09-05T03:05:41.613Z,14.76
2022-09-05T03:08:24.603Z,14.72
2022-09-05T03:11:29.453Z,14.72
2022-09-05T03:14:02.638Z,14.66
2022-09-05T03:17:00.532Z,14.63
2022-09-05T03:19:33.351Z,14.56
2022-09-05T03:22:22.466Z,14.51
2022-09-05T03:25:23.159Z,14.45
2022-09-05T03:28:08.138Z,14.51
2022-09-05T03:31:02.996Z,14.48
2022-09-05T03:33:58.315Z,14.46
2022-09-05T03:37:07.366Z,14.42
2022-09-05T03:39:56.213Z,14.41
2022-09-05T03:42:30.889Z,14.40
2022-09-05T03:45:01.221Z,14.34
2022-09-05T03:47:49.026Z,14.30
2022-09-05T03:57:13.435Z,14.25
2022-09-05T03:57:13.843Z,14.23
2022-09-05T03:57:18.607Z,14.21
2022-09-05T03:59:45.919Z,14.18
2022-09-05T04:08:07.918Z,14.12
2022-09-05T04:08:28.209Z,14.15
2022-09-05T04:08:42.384Z,14.14
2022-09-05T04:11:22.388Z,14.10
2022-09-05T04:13:52.202Z,14.07
2022-09-05T04:16:26.119Z,13.98
2022-09-05T04:19:11.012Z,14.13
2022-09-05T04:22:18.514Z,14.17
2022-09-05T04:25:17.214Z,14.22
2022-09-05T04:27:55.936Z,14.25
2022-09-05T04:30:43.500Z,14.28
2022-09-05T04:33:36.203Z,14.30
2022-09-05T04:36:26.051Z,14.36
2022-09-05T04:39:19.095Z,14.40
2022-09-05T04:42:04.679Z,14.45
2022-09-05T04:44:48.361Z,14.53
2022-09-05T04:47:28.694Z,14.58
2022-09-05T04:49:55.868Z,14.63
2022-09-05T04:52:57.601Z,14.69
2022-09-05T04:55:38.713Z,14.69
2022-09-05T04:58:21.645Z,14.77
2022-09-05T05:05:58.486Z,14.88
2022-09-05T05:06:12.235Z,14.92
2022-09-05T05:06:46.946Z,14.99
2022-09-05T05:09:25.786Z,15.11
2022-09-05T05:18:01.917Z,15.17
2022-09-05T05:18:16.110Z,15.25
2022-09-05T05:18:39.994Z,15.43
2022-09-05T05:21:12.473Z,15.49
2022-09-05T05:23:50.093Z,15.48
2022-09-05T05:26:29.817Z,15.61
2022-09-05T05:29:08.539Z,15.65
2022-09-05T05:31:46.536Z,15.69
2022-09-05T05:34:26.527Z,15.81
2022-09-05T05:37:14.842Z,15.96
2022-09-05T05:39:49.584Z,16.03
2022-09-05T05:42:26.293Z,16.07
2022-09-05T05:44:57.227Z,16.03
2022-09-05T05:47:37.242Z,16.27
2022-09-05T05:50:33.710Z,16.43
2022-09-05T05:53:42.742Z,16.51
2022-09-05T05:56:39.726Z,16.55
2022-09-05T05:59:25.106Z,16.57
2022-09-05T06:01:59.082Z,16.64
2022-09-05T06:05:03.928Z,16.75
2022-09-05T06:10:44.409Z,16.72
2022-09-05T06:14:55.595Z,16.97
2022-09-05T06:14:58.710Z,17.09
2022-09-05T06:17:37.759Z,17.42
2022-09-05T06:22:06.807Z,17.54
2022-09-05T06:23:39.390Z,17.69
2022-09-05T06:26:19.822Z,17.90
2022-09-05T06:29:19.245Z,17.90
2022-09-05T06:32:24.634Z,17.95
2022-09-05T06:35:14.755Z,18.02
2022-09-05T06:37:42.128Z,18.31
2022-09-05T06:40:33.151Z,18.44
2022-09-05T06:43:27.463Z,18.60
2022-09-05T06:46:11.184Z,18.69
2022-09-05T06:49:28.251Z,18.89
2022-09-05T06:51:45.145Z,18.92
2022-09-05T06:54:32.631Z,19.07
2022-09-05T06:57:14.702Z,19.10
2022-09-05T07:00:00.352Z,19.07
2022-09-05T07:02:58.993Z,19.29
2022-09-05T07:05:44.484Z,19.33
2022-09-05T07:08:34.617Z,19.36
2022-09-05T07:11:24.517Z,19.49
2022-09-05T07:14:16.759Z,19.60
2022-09-05T07:16:53.008Z,19.70
2022-09-05T07:19:49.871Z,19.85
2022-09-05T07:22:47.358Z,20.01
2022-09-05T07:25:20.227Z,20.21
2022-09-05T07:28:29.330Z,20.35
2022-09-05T07:30:41.888Z,20.17
2022-09-05T07:33:09.800Z,20.24
2022-09-05T07:35:42.193Z,20.39
2022-09-05T07:38:22.076Z,20.57
2022-09-05T07:40:58.113Z,20.74
2022-09-05T07:43:30.780Z,20.80
2022-09-05T07:46:01.693Z,20.95
2022-09-05T07:48:34.984Z,21.02
2022-09-05T07:56:51.426Z,21.11
2022-09-05T07:57:10.464Z,20.97
2022-09-05T07:57:22.220Z,20.95
2022-09-05T07:59:40.824Z,21.15
2022-09-05T08:02:11.869Z,21.16
2022-09-05T08:04:42.109Z,21.26
2022-09-05T08:07:47.203Z,21.36
2022-09-05T08:10:17.408Z,21.52
2022-09-05T08:13:23.067Z,21.60
2022-09-05T08:16:10.215Z,21.62
2022-09-05T08:18:42.561Z,21.73
2022-09-05T08:21:14.152Z,21.73
2022-09-05T08:24:14.192Z,21.76
2022-09-05T08:27:10.781Z,22.00
2022-09-05T08:30:24.537Z,21.98
2022-09-05T08:33:11.209Z,21.96
2022-09-05T08:35:59.349Z,22.04
2022-09-05T08:38:40.587Z,22.05
2022-09-05T08:41:43.180Z,22.15
2022-09-05T08:46:41.283Z,21.90
2022-09-05T08:47:44.969Z,21.49
2022-09-05T08:50:39.742Z,21.46
2022-09-05T08:53:46.154Z,21.28
2022-09-05T08:56:20.611Z,21.35
2022-09-05T08:59:31.965Z,21.49
2022-09-05T09:02:47.229Z,21.75
2022-09-05T09:05:59.381Z,21.84
2022-09-05T09:08:49.237Z,21.86
2022-09-05T09:11:36.950Z,21.84
2022-09-05T09:14:45.529Z,21.85
2022-09-05T09:17:19.013Z,21.93
2022-09-05T09:20:09.852Z,21.92
2022-09-05T09:22:42.448Z,21.86
2022-09-05T09:25:27.115Z,21.68
2022-09-05T09:28:50.545Z,21.74
2022-09-05T09:31:26.909Z,21.70
2022-09-05T09:34:14.668Z,21.51
2022-09-05T09:37:09.254Z,21.64
2022-09-05T09:39:54.936Z,21.78
2022-09-05T09:42:33.741Z,22.04
2022-09-05T09:45:29.084Z,21.91
2022-09-05T09:48:30.888Z,22.04
2022-09-05T09:51:26.994Z,22.19
2022-09-05T09:54:13.600Z,22.24
2022-09-05T09:56:59.726Z,22.48
2022-09-05T09:59:56.792Z,22.57
2022-09-05T10:07:13.345Z,22.71
2022-09-05T10:10:35.058Z,22.57
2022-09-05T10:10:46.048Z,22.32
2022-09-05T10:12:29.020Z,22.33
2022-09-05T10:15:30.711Z,22.58
2022-09-05T10:18:24.511Z,22.45
2022-09-05T10:21:16.631Z,22.53
2022-09-05T10:24:32.384Z,22.72
2022-09-05T10:27:10.526Z,22.96
2022-09-05T10:29:46.908Z,23.24
2022-09-05T10:35:07.767Z,22.98
2022-09-05T10:35:24.481Z,22.98
2022-09-05T10:37:59.653Z,22.71
2022-09-05T10:40:39.697Z,22.60
2022-09-05T10:43:23.241Z,22.50
2022-09-05T10:46:02.283Z,22.43
2022-09-05T10:48:41.294Z,22.55
2022-09-05T10:51:37.619Z,22.77
2022-09-05T10:54:29.866Z,22.76
2022-09-05T10:57:38.759Z,22.52
2022-09-05T11:02:23.584Z,22.42
2022-09-05T11:03:41.409Z,22.52
2022-09-05T11:06:15.096Z,22.84
2022-09-05T11:09:01.879Z,22.88
2022-09-05T11:11:46.075Z,23.08
2022-09-05T11:14:35.474Z,23.45
2022-09-05T11:17:19.562Z,23.55
2022-09-05T11:20:04.363Z,23.14
2022-09-05T11:22:40.886Z,23.03
2022-09-05T11:25:24.519Z,23.15
2022-09-05T11:28:22.635Z,23.51
2022-09-05T11:30:54.345Z,23.30
2022-09-05T11:39:24.018Z,23.36
2022-09-05T11:39:54.428Z,23.53
2022-09-05T11:40:28.327Z,23.32
2022-09-05T11:43:14.401Z,23.14
2022-09-05T11:46:29.570Z,23.45
2022-09-05T11:49:34.648Z,23.37
2022-09-05T11:52:17.277Z,23.52
2022-09-05T11:55:21.510Z,23.70
2022-09-05T11:58:45.318Z,23.73
2022-09-05T12:01:43.469Z,23.98
2022-09-05T12:04:40.248Z,23.71
2022-09-05T12:07:37.468Z,23.80
2022-09-05T12:10:47.674Z,23.60
2022-09-05T12:13:32.124Z,23.11
2022-09-05T12:16:08.374Z,23.22
2022-09-05T12:18:56.744Z,23.23
2022-09-05T12:22:09.649Z,23.47
2022-09-05T12:25:27.219Z,23.84
2022-09-05T12:29:27.430Z,24.05
2022-09-05T12:32:36.702Z,23.89
2022-09-05T12:36:05.917Z,23.99
2022-09-05T12:40:56.097Z,24.12
2022-09-05T12:41:33.652Z,24.07
2022-09-05T12:44:36.461Z,24.18
2022-09-05T12:46:11.828Z,24.23
2022-09-05T12:48:55.589Z,24.24
2022-09-05T12:51:46.684Z,24.37
2022-09-05T12:54:44.293Z,24.32
2022-09-05T13:00:58.596Z,24.15
2022-09-05T13:03:08.783Z,24.30
2022-09-05T13:03:35.534Z,24.34
2022-09-05T13:06:09.213Z,24.16
2022-09-05T13:08:59.639Z,24.35
2022-09-05T13:14:47.956Z,24.53
2022-09-05T13:14:49.488Z,24.60
2022-09-05T13:17:27.499Z,24.57
2022-09-05T13:19:56.094Z,24.22
2022-09-05T13:22:26.049Z,24.00
2022-09-05T13:25:16.977Z,23.91
2022-09-05T13:27:57.029Z,23.59
2022-09-05T13:34:32.401Z,23.55
2022-09-05T13:37:58.445Z,23.81
2022-09-05T13:38:09.899Z,23.99
2022-09-05T13:39:28.727Z,24.24
2022-09-05T13:42:03.785Z,24.36
2022-09-05T13:44:38.846Z,24.41
2022-09-05T13:47:30.142Z,24.43
2022-09-05T13:50:41.589Z,24.38
2022-09-05T13:53:51.483Z,24.41
2022-09-05T13:56:26.163Z,24.49
2022-09-05T13:59:04.771Z,24.33
2022-09-05T14:02:24.749Z,24.09
2022-09-05T14:05:17.851Z,23.93
2022-09-05T14:07:46.987Z,23.75
2022-09-05T14:10:35.931Z,23.66
2022-09-05T14:13:29.570Z,23.84
2022-09-05T14:16:08.991Z,23.93
2022-09-05T14:19:05.138Z,24.09
2022-09-05T14:21:37.109Z,24.10
2022-09-05T14:24:12.516Z,24.22
2022-09-05T14:26:47.891Z,24.30
2022-09-05T14:29:31.314Z,24.34
2022-09-05T14:37:40.386Z,23.80
2022-09-05T14:37:43.461Z,23.82
2022-09-05T14:38:40.626Z,23.68
2022-09-05T14:42:07.310Z,23.80
2022-09-05T14:44:54.416Z,23.91
2022-09-05T14:48:03.042Z,24.08
2022-09-05T14:50:51.351Z,24.27
2022-09-05T14:56:59.741Z,24.17
2022-09-05T15:02:49.132Z,23.98
2022-09-05T15:02:51.877Z,24.01
2022-09-05T15:05:27.567Z,24.02
2022-09-05T15:08:16.314Z,24.07
2022-09-05T15:12:21.290Z,24.15
2022-09-05T15:13:57.912Z,24.00
2022-09-05T15:16:31.559Z,24.00
2022-09-05T15:19:00.271Z,23.84
2022-09-05T15:21:40.612Z,23.76
2022-09-05T15:24:16.078Z,23.80
2022-09-05T15:26:53.652Z,23.73
2022-09-05T15:29:23.620Z,23.69
2022-09-05T15:31:51.436Z,23.91
2022-09-05T15:34:32.930Z,23.88
2022-09-05T15:37:08.924Z,23.88
2022-09-05T15:39:47.848Z,23.79
2022-09-05T15:42:26.942Z,23.63
2022-09-05T15:45:10.793Z,23.40
2022-09-05T15:47:44.622Z,23.37
2022-09-05T15:50:22.601Z,23.22
2022-09-05T15:52:57.694Z,23.41
2022-09-05T15:55:27.922Z,23.39
2022-09-05T15:58:01.712Z,23.28
2022-09-05T16:00:36.484Z,23.36
2022-09-05T16:04:40.792Z,23.37
2022-09-05T16:10:33.771Z,23.10
2022-09-05T16:10:35.150Z,23.34
2022-09-05T16:12:14.260Z,23.03
2022-09-05T16:15:16.250Z,22.80
2022-09-05T16:23:15.488Z,22.76
2022-09-05T16:23:26.555Z,22.69
2022-09-05T16:23:48.100Z,22.53
2022-09-05T16:26:25.661Z,22.52
2022-09-05T16:29:26.054Z,22.43
2022-09-05T16:32:02.223Z,22.27
2022-09-05T16:34:54.890Z,22.18
2022-09-05T16:37:32.085Z,22.10
2022-09-05T16:40:15.273Z,22.02
2022-09-05T16:42:51.574Z,21.93
2022-09-05T16:45:48.311Z,21.79
2022-09-05T16:48:34.803Z,21.71
2022-09-05T16:51:35.330Z,21.51
2022-09-05T16:54:15.965Z,21.51
2022-09-05T16:56:54.948Z,21.43
2022-09-05T16:59:28.494Z,21.30
2022-09-05T17:02:05.905Z,21.30
2022-09-05T17:05:05.102Z,21.23
2022-09-05T17:08:06.623Z,21.15
2022-09-05T17:10:52.873Z,21.02
2022-09-05T17:13:37.626Z,20.91
2022-09-05T17:16:07.234Z,20.87
2022-09-05T17:18:36.770Z,20.82
2022-09-05T17:21:11.395Z,20.77
2022-09-05T17:29:18.726Z,20.67
2022-09-05T17:29:24.829Z,20.60
2022-09-05T17:32:48.187Z,20.53
2022-09-05T17:35:42.704Z,20.51
2022-09-05T17:38:26.100Z,20.44
2022-09-05T17:41:31.555Z,20.35
2022-09-05T17:44:10.521Z,20.22
2022-09-05T17:46:57.728Z,20.10
2022-09-05T17:49:46.095Z,19.99
2022-09-05T17:52:19.123Z,19.93
2022-09-05T17:55:19.516Z,19.80
2022-09-05T17:57:48.986Z,19.75
2022-09-05T18:00:43.821Z,19.66
2022-09-05T18:03:11.040Z,19.64
2022-09-05T18:05:58.220Z,19.66
2022-09-05T18:08:47.184Z,19.63
2022-09-05T18:11:26.270Z,19.61
2022-09-05T18:13:55.452Z,19.44
2022-09-05T18:16:32.037Z,19.45
2022-09-05T18:19:32.293Z,19.37
2022-09-05T18:22:11.248Z,19.23
2022-09-05T18:28:08.850Z,19.10
2022-09-05T18:30:36.547Z,18.97
2022-09-05T18:33:55.904Z,18.93
2022-09-05T18:35:53.951Z,18.92
2022-09-05T18:38:50.026Z,18.86
2022-09-05T18:41:28.058Z,18.78
2022-09-05T18:44:13.699Z,18.70
2022-09-05T18:46:54.004Z,18.62
2022-09-05T18:50:24.604Z,18.41
2022-09-05T18:52:28.023Z,18.29
2022-09-05T18:55:30.161Z,18.26
2022-09-05T18:58:07.154Z,18.19
2022-09-05T19:00:44.540Z,18.19
2022-09-05T19:03:17.146Z,18.16
2022-09-05T19:05:54.784Z,18.14
2022-09-05T19:08:56.306Z,18.15
2022-09-05T19:11:32.342Z,18.03
2022-09-05T19:14:26.164Z,17.92
2022-09-05T19:17:14.132Z,17.78
2022-09-05T19:20:33.108Z,17.81
2022-09-05T19:23:13.182Z,17.80
2022-09-05T19:25:56.421Z,17.66
2022-09-05T19:36:44.728Z,17.67
2022-09-05T19:36:51.933Z,17.58
2022-09-05T19:37:12.357Z,17.51
2022-09-05T19:37:47.450Z,17.42
2022-09-05T19:46:35.446Z,17.39
2022-09-05T19:47:40.244Z,17.37
2022-09-05T19:47:50.009Z,17.33
2022-09-05T19:49:07.326Z,17.32
2022-09-05T19:51:35.859Z,17.37
2022-09-05T19:54:05.376Z,17.39
2022-09-05T19:56:39.757Z,17.44
2022-09-05T19:59:33.969Z,17.38
2022-09-05T20:02:03.196Z,17.37
2022-09-05T20:04:36.603Z,17.35
2022-09-05T20:07:16.431Z,17.32
2022-09-05T20:09:47.249Z,17.24
2022-09-05T20:12:24.354Z,17.07
2022-09-05T20:14:51.997Z,17.13
2022-09-05T20:17:29.177Z,17.00
2022-09-05T20:20:16.190Z,16.97
2022-09-05T20:22:50.583Z,16.91
2022-09-05T20:25:36.190Z,16.84
2022-09-05T20:28:25.487Z,16.81
2022-09-05T20:30:55.974Z,16.82
2022-09-05T20:33:27.063Z,16.81
2022-09-05T20:41:17.147Z,16.67
2022-09-05T20:43:14.982Z,16.72
2022-09-05T20:43:22.634Z,16.64
2022-09-05T20:44:48.305Z,16.63
2022-09-05T20:51:33.186Z,16.57
2022-09-05T20:54:19.905Z,16.47
2022-09-05T20:54:21.957Z,16.55
2022-09-05T20:56:22.715Z,16.38
2022-09-05T20:58:51.369Z,16.41
2022-09-05T21:01:23.530Z,16.37
2022-09-05T21:04:01.232Z,16.38
2022-09-05T21:06:36.675Z,16.36
2022-09-05T21:09:26.086Z,16.35
2022-09-05T21:11:58.863Z,16.27
2022-09-05T21:14:29.130Z,16.15
2022-09-05T21:17:14.779Z,16.20
2022-09-05T21:19:51.579Z,16.15
2022-09-05T21:22:21.732Z,16.23
2022-09-05T21:25:15.032Z,16.11
2022-09-05T21:27:54.347Z,16.10
2022-09-05T21:30:30.666Z,16.27
2022-09-05T21:33:18.154Z,16.27
2022-09-05T21:35:49.006Z,16.23
2022-09-05T21:38:32.449Z,16.17
2022-09-05T21:41:02.008Z,16.36
2022-09-05T21:47:34.867Z,16.32
2022-09-05T21:47:46.740Z,16.42
2022-09-05T21:49:07.785Z,16.39
2022-09-05T21:51:37.474Z,16.52
2022-09-05T21:57:23.212Z,16.54
2022-09-05T21:59:18.748Z,16.49
2022-09-05T21:59:55.657Z,16.47
2022-09-05T22:02:25.910Z,16.46
2022-09-05T22:05:02.796Z,16.49
2022-09-05T22:07:35.695Z,16.52
2022-09-05T22:10:04.333Z,16.51
2022-09-05T22:12:36.082Z,16.52
2022-09-05T22:15:27.898Z,16.53
2022-09-05T22:18:16.668Z,16.60
2022-09-05T22:21:12.796Z,16.60
2022-09-05T22:23:37.210Z,16.61
2022-09-05T22:26:08.148Z,16.63
2022-09-05T22:28:48.804Z,16.63
2022-09-05T22:31:17.909Z,16.68
2022-09-05T22:33:45.563Z,16.78
2022-09-05T22:36:19.546Z,16.78
2022-09-05T22:38:47.731Z,16.77
2022-09-05T22:41:15.145Z,16.76
2022-09-05T22:43:42.302Z,16.75
2022-09-05T22:46:09.618Z,16.81
2022-09-05T22:48:37.977Z,16.85
2022-09-05T22:51:05.764Z,16.82
2022-09-05T22:53:34.507Z,16.77
2022-09-05T22:56:08.120Z,16.78
2022-09-05T22:58:41.853Z,16.76
2022-09-05T23:01:10.157Z,16.64
2022-09-05T23:03:37.566Z,16.77
2022-09-05T23:06:06.184Z,16.79
2022-09-05T23:08:33.505Z,16.81
2022-09-05T23:11:12.423Z,16.83
2022-09-05T23:13:40.901Z,16.67
2022-09-05T23:16:08.907Z,16.83
2022-09-05T23:18:36.925Z,16.81
2022-09-05T23:21:06.249Z,16.81
2022-09-05T23:23:33.368Z,16.82
2022-09-05T23:26:01.678Z,16.86
2022-09-05T23:28:29.237Z,16.80
2022-09-05T23:31:00.585Z,16.83
2022-09-05T23:33:28.358Z,16.91
2022-09-05T23:36:02.945Z,16.90
2022-09-05T23:38:30.309Z,16.86
2022-09-05T23:41:05.341Z,16.89
2022-09-05T23:43:32.918Z,16.90
2022-09-05T23:46:01.154Z,16.93
2022-09-05T23:48:29.266Z,16.94
2022-09-05T23:50:56.967Z,16.95
2022-09-05T23:53:26.238Z,16.95
2022-09-05T23:55:53.550Z,16.95
2022-09-05T23:58:20.821Z,16.96
